Washington, NE

12:35 PM CDT on August 30, 2016 (GMT -0500)
Elkhorn High School | | Change Station

Elev 1270 ft 41.27 °N, 96.23 °W | Updated 14 minutes ago

Overcast
Overcast
73.3 °F
Feels Like 73 °F
N
0.0
Wind Variable Wind from WSW
Gusts 0.0 mph

Today
High -- | Low -- °F
--% Chance of Precip.
Yesterday
High -- | Low -- °F
Precip. -- in
Pressure 30.20 in
Visibility 10.0 miles
Clouds Scattered Clouds 3600 ft
Scattered Clouds 4400 ft
Mostly Cloudy 7000 ft
Heat Index 73 °F
Dew Point 68.0 °F
Humidity 84%
Rainfall 0.05 in
Snow Depth Not available.
6:49 AM 8:00 PM
Waning Crescent, 3% visible
METAR KBTA 301715Z AUTO 18007KT 10SM -DZ SCT036 SCT044 BKN070 23/21 A3020 RMK AO2 T02330205
Pressure 30.20 in
Visibility 10.0 miles
Clouds Scattered Clouds 3600 ft
Scattered Clouds 4400 ft
Mostly Cloudy 7000 ft
Heat Index 73 °F
Dew Point 68.0 °F
Humidity 84%
Rainfall 0.05 in
Snow Depth Not available.
6:49 AM 8:00 PM
Waning Crescent, 3% visible
METAR KBTA 301715Z AUTO 18007KT 10SM -DZ SCT036 SCT044 BKN070 23/21 A3020 RMK AO2 T02330205

10-Day Weather Forecast

Almanac

Astronomy

Aug. 30, 2016 Rise Set
Actual Time
Civil Twilight
Nautical Twilight
Astronomical Twilight
Moon
Length of Visible Light
Length of Day
Tomorrow will be .
, % of the Moon is Illuminated

Today's Extremes

State Highs State Lows

Community

WunderPhotos

Upload Photos

1,935,853 photos uploaded!

WunderBlog® & News

Nearby

Air Quality

  Air Quality AQ Index Pollutant
Not available.

Snow Depth

Station Depth Elevation

Earthquake Activity

City Distance Mag. Time & Date
Minimum magnitude displayed is 2.5.

Coastal Water Temperatures

Place Temperature

Stations

Nearby Weather Stations

Station Location Temp. Windchill Dew Point Humidity Wind Precip. Elev Updated Type
                   

Watches & Warnings

There are currently no watches in effect.